Time;durP1;ratioP1;P1;durP2;ratioP2;P2;SDS_P1;SDS_P2;PMS_P1;PMS_P2;Temp;Humidity;BMP_temperature;BMP_pressure;BME280_temperature;BME280_humidity;BME280_pressure;Samples;Min_cycle;Max_cycle;Signal;HPM_P1;HPM_P2
2022/07/27 00:02:50;;;;;;;13.23;8.45;;;;;;;;;;5031649;28;20830;-70
2022/07/27 00:05:18;;;;;;;10.90;8.13;;;;;;;;;;5030871;28;20029;-70
2022/07/27 00:07:44;;;;;;;11.98;8.70;;;;;;;;;;5030482;28;20022;-71
2022/07/27 00:10:11;;;;;;;11.63;9.32;;;;;;;;;;5030764;28;20381;-70
2022/07/27 00:12:37;;;;;;;13.50;10.48;;;;;;;;;;5030689;28;20475;-71
2022/07/27 00:15:29;;;;;;;11.60;9.13;;;;;;;;;;5111589;27;20838;-70
2022/07/27 00:17:59;;;;;;;10.38;7.82;;;;;;;;;;5110320;28;20396;-70
2022/07/27 00:20:26;;;;;;;13.98;9.00;;;;;;;;;;5109579;28;20024;-70
2022/07/27 00:22:52;;;;;;;11.73;8.57;;;;;;;;;;5111256;28;20020;-70
2022/07/27 00:25:18;;;;;;;10.88;8.60;;;;;;;;;;5109908;28;20022;-70
2022/07/27 00:27:44;;;;;;;11.60;9.15;;;;;;;;;;5110931;28;20537;-71
2022/07/27 00:30:10;;;;;;;12.90;8.38;;;;;;;;;;5110012;28;20123;-71
2022/07/27 00:34:44;;;;;;;11.07;8.82;;;;;;;;;;5111239;27;20397;-71
2022/07/27 00:37:10;;;;;;;11.18;8.45;;;;;;;;;;5111263;28;20027;-71
2022/07/27 00:39:36;;;;;;;11.98;9.35;;;;;;;;;;5111251;28;20024;-71
2022/07/27 00:42:02;;;;;;;11.02;8.38;;;;;;;;;;5110972;28;20024;-71
2022/07/27 00:44:51;;;;;;;12.38;8.70;;;;;;;;;;5111711;27;20389;-70
2022/07/27 00:47:17;;;;;;;13.48;9.88;;;;;;;;;;5111301;28;20032;-71
2022/07/27 00:51:09;;;;;;;12.57;8.65;;;;;;;;;;5173763;27;20318;-70
2022/07/27 00:53:35;;;;;;;10.88;8.23;;;;;;;;;;5152463;27;20027;-70
2022/07/27 00:57:20;;;;;;;11.75;8.60;;;;;;;;;;5110921;27;20463;-71
2022/07/27 01:02:39;;;;;;;10.88;8.05;;;;;;;;;;5111263;27;20320;-70
2022/07/27 01:05:05;;;;;;;12.32;8.23;;;;;;;;;;5109903;28;20042;-71
2022/07/27 01:07:31;;;;;;;11.27;8.65;;;;;;;;;;5111159;28;20510;-70
2022/07/27 01:09:58;;;;;;;13.90;9.20;;;;;;;;;;5110773;28;20063;-70
2022/07/27 01:12:26;;;;;;;12.40;9.23;;;;;;;;;;5109744;28;20031;-70
2022/07/27 01:14:53;;;;;;;12.32;9.55;;;;;;;;;;5110036;28;20039;-70
2022/07/27 01:17:19;;;;;;;12.60;9.75;;;;;;;;;;5110617;28;20028;-70
2022/07/27 01:20:21;;;;;;;13.00;9.13;;;;;;;;;;5111384;27;20435;-70
2022/07/27 01:22:47;;;;;;;11.48;8.45;;;;;;;;;;5111115;28;20563;-70
2022/07/27 01:25:13;;;;;;;10.15;7.95;;;;;;;;;;5110826;28;20028;-71
2022/07/27 01:33:24;;;;;;;10.30;8.25;;;;;;;;;;5153107;27;20110;-71
2022/07/27 01:35:51;;;;;;;10.85;7.63;;;;;;;;;;5152799;27;20034;-71
2022/07/27 01:39:46;;;;;;;12.45;8.88;;;;;;;;;;5070651;28;20469;-71
2022/07/27 01:42:12;;;;;;;12.13;9.38;;;;;;;;;;5069480;28;20052;-72
2022/07/27 01:44:38;;;;;;;13.52;9.55;;;;;;;;;;5069038;28;20040;-71
2022/07/27 01:47:05;;;;;;;11.15;8.63;;;;;;;;;;5070644;28;20096;-71
2022/07/27 01:50:26;;;;;;;12.02;8.32;;;;;;;;;;5111415;27;20405;-70
2022/07/27 01:52:52;;;;;;;10.55;8.10;;;;;;;;;;5110903;28;20035;-70
2022/07/27 01:55:19;;;;;;;10.25;8.30;;;;;;;;;;5109986;28;20024;-71
2022/07/27 01:57:45;;;;;;;10.75;7.80;;;;;;;;;;5111201;28;20055;-71
2022/07/27 02:00:12;;;;;;;10.63;7.60;;;;;;;;;;5110733;28;20024;-71
2022/07/27 02:02:38;;;;;;;10.80;7.82;;;;;;;;;;5109815;28;20426;-71
2022/07/27 02:05:16;;;;;;;11.43;7.82;;;;;;;;;;5111453;27;20772;-71
2022/07/27 02:08:39;;;;;;;11.23;8.50;;;;;;;;;;5070734;28;20411;-70
2022/07/27 02:14:37;;;;;;;9.43;7.57;;;;;;;;;;5070313;28;20132;-71
2022/07/27 02:19:34;;;;;;;11.82;8.90;;;;;;;;;;5111189;27;20462;-70
2022/07/27 02:22:00;;;;;;;11.10;8.80;;;;;;;;;;5111295;28;20031;-70
2022/07/27 02:24:26;;;;;;;13.93;8.90;;;;;;;;;;5111246;28;20051;-70
2022/07/27 02:26:52;;;;;;;11.23;9.07;;;;;;;;;;5110795;28;20510;-70
2022/07/27 02:29:18;;;;;;;12.82;9.20;;;;;;;;;;5109833;28;20115;-71
2022/07/27 02:31:45;;;;;;;13.07;8.93;;;;;;;;;;5111108;28;20028;-71
2022/07/27 02:34:11;;;;;;;12.52;8.70;;;;;;;;;;5109384;28;20411;-71
2022/07/27 02:36:38;;;;;;;11.52;8.98;;;;;;;;;;5109716;28;20024;-71
2022/07/27 02:39:04;;;;;;;12.13;9.27;;;;;;;;;;5109618;28;20503;-71
2022/07/27 02:41:30;;;;;;;12.68;8.40;;;;;;;;;;5109226;28;20050;-70
2022/07/27 02:43:56;;;;;;;11.27;8.57;;;;;;;;;;5110938;28;20095;-71
2022/07/27 02:46:22;;;;;;;11.75;8.52;;;;;;;;;;5110805;28;20519;-71
2022/07/27 02:50:49;;;;;;;10.82;8.40;;;;;;;;;;5111285;27;20416;-70
2022/07/27 02:53:15;;;;;;;12.20;8.65;;;;;;;;;;5111313;28;20468;-71
2022/07/27 02:55:41;;;;;;;12.15;7.88;;;;;;;;;;5126597;28;20027;-71
2022/07/27 02:58:08;;;;;;;12.23;8.13;;;;;;;;;;5126980;28;20073;-70
2022/07/27 03:00:34;;;;;;;12.57;9.00;;;;;;;;;;5126888;28;20434;-70
2022/07/27 03:03:00;;;;;;;12.30;9.13;;;;;;;;;;5126517;28;20024;-71
2022/07/27 03:06:19;;;;;;;12.63;8.75;;;;;;;;;;5111387;27;20393;-71
2022/07/27 03:08:45;;;;;;;11.23;8.40;;;;;;;;;;5110005;28;20119;-71
2022/07/27 03:12:44;;;;;;;11.75;8.27;;;;;;;;;;5112063;27;20461;-71
2022/07/27 03:15:11;;;;;;;13.10;8.45;;;;;;;;;;5111320;28;20024;-71
2022/07/27 03:18:39;;;;;;;11.32;9.35;;;;;;;;;;5111287;27;20824;-71
2022/07/27 03:21:06;;;;;;;12.38;9.32;;;;;;;;;;5111304;28;20035;-71
2022/07/27 03:23:33;;;;;;;15.07;10.57;;;;;;;;;;5110797;28;20016;-71
2022/07/27 03:25:59;;;;;;;13.15;10.38;;;;;;;;;;5111199;28;20024;-71
2022/07/27 03:28:25;;;;;;;13.70;10.10;;;;;;;;;;5111067;28;20024;-71
2022/07/27 03:35:52;;;;;;;12.98;9.52;;;;;;;;;;5070824;28;20834;-71
2022/07/27 03:38:18;;;;;;;12.60;9.50;;;;;;;;;;5070357;28;20052;-71
2022/07/27 03:40:45;;;;;;;12.13;9.40;;;;;;;;;;5069336;28;20469;-71
2022/07/27 03:43:11;;;;;;;12.88;9.38;;;;;;;;;;5070579;28;20028;-71
2022/07/27 03:45:37;;;;;;;13.00;8.73;;;;;;;;;;5070124;28;20024;-70
2022/07/27 03:48:03;;;;;;;11.25;8.50;;;;;;;;;;5070474;28;20028;-71
2022/07/27 03:50:30;;;;;;;15.27;9.63;;;;;;;;;;5070560;28;20021;-71
2022/07/27 03:52:56;;;;;;;13.13;9.30;;;;;;;;;;5068650;28;20034;-71
2022/07/27 03:58:27;;;;;;;13.02;8.48;;;;;;;;;;5111422;27;20408;-71
2022/07/27 04:00:54;;;;;;;11.93;8.63;;;;;;;;;;5111176;28;20088;-71
2022/07/27 04:03:20;;;;;;;13.95;8.77;;;;;;;;;;5111438;28;20430;-71
2022/07/27 04:06:13;;;;;;;13.10;9.68;;;;;;;;;;5111279;27;20465;-71
2022/07/27 04:08:39;;;;;;;13.10;9.52;;;;;;;;;;5111280;28;20035;-71
2022/07/27 04:11:05;;;;;;;12.48;8.82;;;;;;;;;;5111433;28;20379;-71
2022/07/27 04:13:31;;;;;;;13.55;9.23;;;;;;;;;;5126552;28;20020;-71
2022/07/27 04:15:57;;;;;;;17.10;9.48;;;;;;;;;;5111139;28;20024;-71
2022/07/27 04:18:24;;;;;;;14.27;8.95;;;;;;;;;;5111064;28;20021;-71
2022/07/27 04:20:50;;;;;;;13.68;8.88;;;;;;;;;;5126545;28;20051;-71
2022/07/27 04:23:38;;;;;;;11.27;8.38;;;;;;;;;;5070795;28;20388;-71
2022/07/27 04:26:05;;;;;;;13.18;8.63;;;;;;;;;;5070739;28;20083;-71
2022/07/27 04:28:31;;;;;;;11.23;8.27;;;;;;;;;;5070613;28;20092;-71
2022/07/27 04:30:57;;;;;;;10.50;8.30;;;;;;;;;;5070747;28;20108;-71
2022/07/27 04:33:24;;;;;;;11.18;7.68;;;;;;;;;;5070654;28;20052;-71
2022/07/27 04:35:50;;;;;;;11.32;8.57;;;;;;;;;;5070557;28;20048;-72
2022/07/27 04:38:16;;;;;;;11.10;8.18;;;;;;;;;;5069193;28;20025;-71
2022/07/27 04:40:42;;;;;;;14.57;10.15;;;;;;;;;;5068687;28;20418;-71
2022/07/27 04:43:08;;;;;;;12.23;9.20;;;;;;;;;;5069034;28;20128;-71
2022/07/27 04:46:48;;;;;;;13.15;9.40;;;;;;;;;;5111773;27;20965;-71
2022/07/27 04:49:14;;;;;;;13.10;8.10;;;;;;;;;;5109521;28;20110;-71
2022/07/27 04:51:44;;;;;;;9.75;7.53;;;;;;;;;;5111208;28;20027;-71
2022/07/27 04:54:10;;;;;;;10.10;7.75;;;;;;;;;;5109868;28;20024;-71
2022/07/27 04:57:53;;;;;;;12.73;9.38;;;;;;;;;;5112106;27;20397;-71
2022/07/27 05:01:10;;;;;;;15.68;9.45;;;;;;;;;;5111953;27;20393;-71
2022/07/27 05:03:36;;;;;;;12.93;9.05;;;;;;;;;;5110858;28;20020;-71
2022/07/27 05:06:03;;;;;;;11.88;8.13;;;;;;;;;;5111238;28;20441;-71
2022/07/27 05:08:29;;;;;;;12.00;8.75;;;;;;;;;;5110890;28;20054;-71
2022/07/27 05:10:55;;;;;;;12.38;8.07;;;;;;;;;;5111264;28;20024;-71
2022/07/27 05:14:50;;;;;;;11.82;9.15;;;;;;;;;;5111473;27;20461;-68
2022/07/27 05:17:16;;;;;;;13.23;8.93;;;;;;;;;;5110921;28;20024;-68
2022/07/27 05:21:18;;;;;;;11.80;8.00;;;;;;;;;;5111348;27;20412;-69
2022/07/27 05:25:24;;;;;;;11.07;8.80;;;;;;;;;;5112069;27;20544;-71
2022/07/27 05:27:51;;;;;;;10.68;8.63;;;;;;;;;;5109923;28;20032;-70
2022/07/27 05:33:15;;;;;;;10.85;8.35;;;;;;;;;;5111314;27;20454;-70
2022/07/27 05:35:41;;;;;;;10.35;7.65;;;;;;;;;;5127123;28;20073;-70
2022/07/27 05:39:31;;;;;;;11.32;8.68;;;;;;;;;;5112069;27;20456;-69
2022/07/27 05:41:57;;;;;;;10.82;7.78;;;;;;;;;;5110023;28;20031;-69
2022/07/27 05:44:24;;;;;;;11.77;8.05;;;;;;;;;;5110865;28;20047;-70
2022/07/27 05:46:50;;;;;;;14.05;8.52;;;;;;;;;;5111346;28;20081;-69
2022/07/27 05:49:16;;;;;;;14.38;9.50;;;;;;;;;;5110049;28;20073;-69
2022/07/27 05:51:42;;;;;;;12.00;7.38;;;;;;;;;;5109293;28;20110;-69
2022/07/27 05:54:08;;;;;;;11.55;8.10;;;;;;;;;;5109813;28;20383;-69
2022/07/27 05:58:31;;;;;;;11.00;7.78;;;;;;;;;;5111272;27;20446;-69
2022/07/27 06:00:57;;;;;;;11.38;8.13;;;;;;;;;;5111338;28;20030;-69
2022/07/27 06:05:26;;;;;;;15.15;8.57;;;;;;;;;;5111415;27;20442;-69
2022/07/27 06:10:00;;;;;;;11.23;8.20;;;;;;;;;;5112045;27;20405;-71
2022/07/27 06:12:27;;;;;;;12.65;7.55;;;;;;;;;;5110944;28;20032;-69
2022/07/27 06:14:53;;;;;;;10.57;7.72;;;;;;;;;;5111189;28;20070;-70
2022/07/27 06:17:19;;;;;;;15.57;7.38;;;;;;;;;;5111235;28;20023;-70
2022/07/27 06:19:45;;;;;;;11.27;8.30;;;;;;;;;;5110720;28;20417;-70
2022/07/27 06:22:12;;;;;;;14.60;8.70;;;;;;;;;;5111143;28;20439;-70
2022/07/27 06:26:27;;;;;;;14.57;8.15;;;;;;;;;;5111252;27;20389;-69
2022/07/27 06:28:57;;;;;;;14.90;8.27;;;;;;;;;;5111371;28;20032;-70
2022/07/27 06:31:24;;;;;;;10.60;7.07;;;;;;;;;;5111546;28;20015;-70
2022/07/27 06:36:38;;;;;;;10.95;7.13;;;;;;;;;;5112172;27;20458;-70
2022/07/27 06:39:04;;;;;;;8.65;6.07;;;;;;;;;;5111206;28;20032;-70
2022/07/27 06:41:32;;;;;;;10.23;6.13;;;;;;;;;;5110860;28;20019;-70
2022/07/27 06:43:59;;;;;;;9.68;6.85;;;;;;;;;;5109921;28;20028;-70
2022/07/27 06:46:25;;;;;;;18.13;6.43;;;;;;;;;;5109859;28;20480;-70
2022/07/27 06:48:51;;;;;;;8.38;5.45;;;;;;;;;;5110659;28;20102;-70
2022/07/27 06:51:18;;;;;;;7.57;4.90;;;;;;;;;;5110981;28;20055;-69
2022/07/27 06:53:44;;;;;;;11.25;5.60;;;;;;;;;;5110976;28;20068;-70
2022/07/27 06:56:10;;;;;;;7.80;4.70;;;;;;;;;;5110470;28;20110;-70
2022/07/27 06:58:36;;;;;;;9.63;5.50;;;;;;;;;;5109637;28;20106;-70
2022/07/27 07:01:03;;;;;;;12.50;4.85;;;;;;;;;;5109544;28;20024;-71
2022/07/27 07:03:29;;;;;;;9.70;5.13;;;;;;;;;;5110496;28;20027;-70
2022/07/27 07:05:56;;;;;;;9.38;5.25;;;;;;;;;;5107775;28;20020;-72
2022/07/27 07:08:22;;;;;;;9.15;4.47;;;;;;;;;;5109771;28;20020;-71
2022/07/27 07:11:32;;;;;;;8.02;4.63;;;;;;;;;;5111287;27;20397;-69
2022/07/27 07:13:58;;;;;;;8.55;5.22;;;;;;;;;;5111132;28;20077;-69
2022/07/27 07:16:25;;;;;;;10.77;5.70;;;;;;;;;;5110579;28;20038;-68
2022/07/27 07:18:51;;;;;;;9.85;5.13;;;;;;;;;;5111000;28;20016;-68
2022/07/27 07:21:17;;;;;;;8.57;5.60;;;;;;;;;;5109752;28;20437;-70
2022/07/27 07:23:43;;;;;;;7.95;5.20;;;;;;;;;;5109003;28;20034;-69
2022/07/27 07:26:09;;;;;;;10.80;5.10;;;;;;;;;;5109441;28;20103;-69
2022/07/27 07:28:35;;;;;;;10.43;4.10;;;;;;;;;;5111184;28;20418;-70
2022/07/27 07:31:01;;;;;;;7.40;4.65;;;;;;;;;;5109078;28;20341;-70
2022/07/27 07:33:28;;;;;;;12.02;4.70;;;;;;;;;;5110869;28;20020;-71
2022/07/27 07:35:54;;;;;;;9.38;5.28;;;;;;;;;;5109110;28;20459;-70
2022/07/27 07:38:20;;;;;;;7.68;4.72;;;;;;;;;;5109903;28;20023;-75
2022/07/27 07:40:46;;;;;;;13.85;5.68;;;;;;;;;;5110533;28;20055;-75
2022/07/27 07:43:58;;;;;;;9.30;5.22;;;;;;;;;;5110704;27;20458;-74
2022/07/27 07:46:24;;;;;;;8.52;4.68;;;;;;;;;;5110708;28;20027;-73
2022/07/27 07:48:51;;;;;;;8.90;4.47;;;;;;;;;;5109845;28;20076;-74
2022/07/27 07:51:17;;;;;;;9.07;4.53;;;;;;;;;;5110563;28;20130;-74
2022/07/27 07:53:44;;;;;;;8.75;4.55;;;;;;;;;;5110745;28;20026;-74
2022/07/27 07:56:10;;;;;;;10.95;5.15;;;;;;;;;;5109661;28;20507;-75
2022/07/27 07:58:36;;;;;;;8.27;4.88;;;;;;;;;;5110538;28;20100;-75
2022/07/27 08:01:02;;;;;;;9.98;4.95;;;;;;;;;;5110808;28;20103;-75
2022/07/27 08:03:28;;;;;;;8.45;4.93;;;;;;;;;;5110848;28;20035;-77
2022/07/27 08:05:55;;;;;;;9.77;4.60;;;;;;;;;;5109964;28;20099;-76
2022/07/27 08:08:21;;;;;;;10.15;5.32;;;;;;;;;;5110634;28;20024;-75
2022/07/27 08:10:47;;;;;;;9.25;4.43;;;;;;;;;;5110753;28;20077;-75
2022/07/27 08:13:13;;;;;;;7.22;4.35;;;;;;;;;;5108575;28;20016;-78
2022/07/27 08:15:39;;;;;;;8.85;4.63;;;;;;;;;;5105858;28;20042;-77
2022/07/27 08:18:05;;;;;;;6.82;4.10;;;;;;;;;;5108436;28;20016;-74
2022/07/27 08:20:32;;;;;;;7.28;4.05;;;;;;;;;;5108558;28;20020;-74
2022/07/27 08:22:59;;;;;;;8.77;4.65;;;;;;;;;;5107736;28;20166;-78
2022/07/27 08:25:25;;;;;;;9.65;4.22;;;;;;;;;;5109138;28;20016;-75
2022/07/27 08:27:51;;;;;;;8.18;4.30;;;;;;;;;;5108659;28;20111;-76
2022/07/27 08:30:17;;;;;;;8.82;4.88;;;;;;;;;;5109103;28;20052;-78
2022/07/27 08:33:03;;;;;;;8.40;4.70;;;;;;;;;;5102368;28;20024;-76
2022/07/27 08:35:30;;;;;;;7.70;3.95;;;;;;;;;;5107050;28;20472;-74
2022/07/27 08:37:57;;;;;;;9.90;4.65;;;;;;;;;;5110039;28;20057;-75
2022/07/27 08:40:23;;;;;;;7.00;4.50;;;;;;;;;;5107275;28;20024;-75
2022/07/27 08:42:49;;;;;;;11.52;4.80;;;;;;;;;;5109907;28;20050;-74
2022/07/27 08:45:17;;;;;;;6.65;4.10;;;;;;;;;;5109860;28;20023;-76
2022/07/27 08:47:47;;;;;;;8.05;4.78;;;;;;;;;;5109346;28;20551;-77
2022/07/27 08:50:23;;;;;;;7.65;4.60;;;;;;;;;;5108809;28;20020;-77
2022/07/27 08:53:02;;;;;;;7.22;4.28;;;;;;;;;;5110559;28;20388;-77
2022/07/27 08:55:29;;;;;;;6.65;4.45;;;;;;;;;;5092293;28;20540;-78
2022/07/27 08:57:55;;;;;;;10.70;5.00;;;;;;;;;;5093030;28;20387;-78
2022/07/27 09:00:22;;;;;;;8.80;4.07;;;;;;;;;;5094149;28;20480;-76
2022/07/27 09:02:48;;;;;;;7.93;4.72;;;;;;;;;;5092578;28;20060;-77
2022/07/27 09:05:15;;;;;;;7.10;4.25;;;;;;;;;;5094911;28;20024;-82
2022/07/27 09:07:41;;;;;;;8.60;4.82;;;;;;;;;;5093496;28;20028;-81
2022/07/27 09:10:07;;;;;;;9.18;4.53;;;;;;;;;;5094747;28;20024;-82
2022/07/27 09:12:34;;;;;;;7.05;4.18;;;;;;;;;;5094079;28;20027;-81
2022/07/27 09:15:08;;;;;;;8.60;4.57;;;;;;;;;;5094161;28;20028;-82
2022/07/27 09:17:34;;;;;;;8.18;3.95;;;;;;;;;;5095003;28;20090;-82
2022/07/27 09:20:02;;;;;;;8.02;4.75;;;;;;;;;;5095158;28;20414;-82
2022/07/27 09:22:41;;;;;;;8.98;4.32;;;;;;;;;;5094966;28;20044;-81
2022/07/27 09:25:09;;;;;;;7.30;4.68;;;;;;;;;;5094780;28;20028;-82
2022/07/27 09:27:35;;;;;;;7.10;4.35;;;;;;;;;;5093665;28;20073;-84
2022/07/27 09:30:04;;;;;;;7.20;4.70;;;;;;;;;;5094752;28;20056;-83
2022/07/27 09:32:30;;;;;;;7.78;4.22;;;;;;;;;;5093286;28;20020;-83
2022/07/27 09:34:57;;;;;;;7.55;4.60;;;;;;;;;;5095141;28;20472;-82
2022/07/27 09:37:27;;;;;;;7.35;4.45;;;;;;;;;;5094192;28;20024;-82
2022/07/27 09:40:11;;;;;;;8.38;4.10;;;;;;;;;;5096508;28;20036;-82
2022/07/27 09:42:38;;;;;;;7.70;4.50;;;;;;;;;;5096996;28;20075;-84
2022/07/27 09:45:04;;;;;;;10.15;4.60;;;;;;;;;;5097659;28;20028;-84
2022/07/27 09:47:30;;;;;;;8.68;5.47;;;;;;;;;;5097007;28;20028;-81
2022/07/27 09:50:16;;;;;;;6.82;4.13;;;;;;;;;;5097541;28;20062;-85
2022/07/27 09:52:43;;;;;;;7.88;4.40;;;;;;;;;;5098874;28;20028;-83
2022/07/27 09:55:09;;;;;;;6.32;3.75;;;;;;;;;;5099986;28;20022;-81
2022/07/27 09:57:51;;;;;;;7.95;4.50;;;;;;;;;;5097604;28;20038;-82
2022/07/27 10:00:18;;;;;;;10.23;4.75;;;;;;;;;;5096803;28;20024;-83
2022/07/27 10:02:44;;;;;;;10.45;4.30;;;;;;;;;;5097756;28;20067;-79
2022/07/27 10:05:12;;;;;;;8.60;4.65;;;;;;;;;;5095981;28;20016;-83
2022/07/27 10:07:39;;;;;;;8.05;4.82;;;;;;;;;;5094671;28;20134;-82
2022/07/27 10:10:05;;;;;;;9.15;5.10;;;;;;;;;;5096041;28;20020;-79
2022/07/27 10:12:31;;;;;;;11.80;5.53;;;;;;;;;;5096107;28;20024;-81
2022/07/27 10:14:58;;;;;;;8.43;4.43;;;;;;;;;;5096640;28;20028;-81
2022/07/27 10:17:24;;;;;;;6.45;3.95;;;;;;;;;;5094038;28;20028;-80
2022/07/27 10:19:50;;;;;;;8.70;4.28;;;;;;;;;;5093898;28;20070;-82
2022/07/27 10:22:36;;;;;;;7.88;4.30;;;;;;;;;;5093682;28;20036;-82
2022/07/27 10:25:03;;;;;;;7.93;4.63;;;;;;;;;;5094233;28;20027;-82
2022/07/27 10:27:29;;;;;;;9.48;5.05;;;;;;;;;;5093176;28;20054;-76
2022/07/27 10:29:56;;;;;;;6.20;3.80;;;;;;;;;;5094477;28;20068;-79
2022/07/27 10:32:32;;;;;;;5.68;3.90;;;;;;;;;;5093980;28;20061;-79
2022/07/27 10:35:00;;;;;;;6.75;4.20;;;;;;;;;;5094601;28;20023;-79
2022/07/27 10:37:26;;;;;;;7.18;4.05;;;;;;;;;;5093097;28;20059;-77
2022/07/27 10:43:06;;;;;;;7.35;4.43;;;;;;;;;;5070639;28;20036;-79
2022/07/27 10:45:43;;;;;;;9.63;4.38;;;;;;;;;;5094441;28;20150;-79
2022/07/27 10:48:29;;;;;;;6.95;4.40;;;;;;;;;;5093990;28;20020;-79
2022/07/27 10:50:55;;;;;;;6.80;4.40;;;;;;;;;;5094177;28;20028;-81
2022/07/27 10:53:31;;;;;;;8.25;4.10;;;;;;;;;;5093877;28;20122;-78
2022/07/27 10:55:58;;;;;;;6.22;4.38;;;;;;;;;;5094161;28;20049;-79
2022/07/27 10:58:27;;;;;;;6.22;4.22;;;;;;;;;;5094178;28;20028;-79
2022/07/27 11:00:53;;;;;;;6.97;4.45;;;;;;;;;;5093780;28;20012;-78
2022/07/27 11:03:20;;;;;;;8.48;4.63;;;;;;;;;;5093888;28;20373;-79
2022/07/27 11:06:07;;;;;;;6.45;4.00;;;;;;;;;;5093964;28;20383;-80
2022/07/27 11:08:38;;;;;;;8.57;4.60;;;;;;;;;;5093562;28;20439;-78
2022/07/27 11:11:05;;;;;;;9.05;5.00;;;;;;;;;;5092573;28;20111;-79
2022/07/27 11:13:33;;;;;;;7.18;4.25;;;;;;;;;;5093803;28;20131;-80
2022/07/27 11:16:05;;;;;;;7.95;4.45;;;;;;;;;;5092176;28;20031;-79
2022/07/27 11:18:33;;;;;;;8.23;4.60;;;;;;;;;;5093637;28;20016;-80
2022/07/27 11:21:15;;;;;;;6.05;3.88;;;;;;;;;;5093780;28;20095;-78
2022/07/27 11:23:42;;;;;;;10.30;4.72;;;;;;;;;;5093649;28;20028;-78
2022/07/27 11:26:09;;;;;;;8.60;4.18;;;;;;;;;;5093644;28;20020;-79
2022/07/27 11:28:35;;;;;;;9.07;4.00;;;;;;;;;;5093781;28;20491;-79
2022/07/27 11:31:02;;;;;;;7.57;4.35;;;;;;;;;;5093738;28;20020;-79
2022/07/27 11:33:28;;;;;;;8.50;4.43;;;;;;;;;;5093661;28;20428;-80
2022/07/27 11:35:59;;;;;;;7.05;4.03;;;;;;;;;;5093160;28;20405;-78
2022/07/27 11:38:25;;;;;;;9.10;3.95;;;;;;;;;;5093559;28;20024;-77
2022/07/27 11:40:52;;;;;;;6.75;3.85;;;;;;;;;;5092222;28;20024;-78
2022/07/27 11:43:35;;;;;;;6.72;3.70;;;;;;;;;;5093545;28;20076;-78
2022/07/27 11:46:14;;;;;;;8.07;4.45;;;;;;;;;;5093491;28;20464;-77
2022/07/27 11:48:51;;;;;;;7.30;4.15;;;;;;;;;;5093759;28;20035;-77
2022/07/27 11:51:17;;;;;;;6.57;4.43;;;;;;;;;;5093138;28;20035;-75
2022/07/27 11:53:43;;;;;;;6.63;3.95;;;;;;;;;;5093285;28;20035;-77
2022/07/27 11:56:10;;;;;;;8.63;4.10;;;;;;;;;;5092094;28;20069;-78
2022/07/27 11:58:55;;;;;;;11.63;4.40;;;;;;;;;;5093018;28;20165;-76
2022/07/27 12:01:28;;;;;;;8.70;4.82;;;;;;;;;;5093151;28;20077;-76
2022/07/27 12:04:03;;;;;;;7.45;4.20;;;;;;;;;;5092628;28;20496;-77
2022/07/27 12:06:32;;;;;;;6.82;4.20;;;;;;;;;;5093221;28;20388;-77
2022/07/27 12:08:59;;;;;;;8.45;4.20;;;;;;;;;;5093304;28;20020;-76
2022/07/27 12:11:29;;;;;;;5.28;3.72;;;;;;;;;;5092856;28;20020;-77
2022/07/27 12:13:58;;;;;;;6.45;4.07;;;;;;;;;;5093333;28;20025;-78
2022/07/27 12:16:24;;;;;;;5.60;3.80;;;;;;;;;;5093210;28;20526;-76
2022/07/27 12:18:51;;;;;;;6.43;4.05;;;;;;;;;;5092744;28;20154;-76
2022/07/27 12:21:17;;;;;;;6.93;4.10;;;;;;;;;;5092977;28;20039;-75
2022/07/27 12:23:51;;;;;;;9.70;4.72;;;;;;;;;;5092540;28;20053;-76
2022/07/27 12:26:18;;;;;;;8.55;5.57;;;;;;;;;;5092431;28;20024;-77
2022/07/27 12:28:44;;;;;;;5.82;4.00;;;;;;;;;;5093562;28;20032;-76
2022/07/27 12:31:17;;;;;;;6.18;4.20;;;;;;;;;;5096823;28;20484;-76
2022/07/27 12:33:44;;;;;;;11.75;4.70;;;;;;;;;;5096469;28;20030;-77
2022/07/27 12:36:10;;;;;;;7.65;4.40;;;;;;;;;;5096829;28;20032;-77
2022/07/27 12:38:40;;;;;;;5.88;4.05;;;;;;;;;;5096654;28;20028;-78
2022/07/27 12:41:06;;;;;;;8.05;4.05;;;;;;;;;;5097082;28;20020;-78
2022/07/27 12:43:33;;;;;;;6.43;4.10;;;;;;;;;;5096220;28;20484;-77
2022/07/27 12:46:10;;;;;;;6.05;3.90;;;;;;;;;;5096588;28;20823;-77
2022/07/27 12:48:41;;;;;;;9.27;4.07;;;;;;;;;;5096990;28;20028;-79
2022/07/27 12:51:08;;;;;;;6.72;4.05;;;;;;;;;;5097042;28;20074;-80
2022/07/27 12:53:35;;;;;;;5.45;3.80;;;;;;;;;;5094858;28;20032;-72
2022/07/27 12:56:05;;;;;;;5.80;3.38;;;;;;;;;;5096092;28;20442;-73
2022/07/27 12:58:31;;;;;;;7.35;3.90;;;;;;;;;;5094809;28;20158;-74
2022/07/27 13:00:57;;;;;;;8.70;3.78;;;;;;;;;;5096041;28;20024;-73
2022/07/27 13:03:24;;;;;;;10.40;4.65;;;;;;;;;;5094892;28;20130;-72
2022/07/27 13:05:50;;;;;;;6.07;3.95;;;;;;;;;;5096135;28;20035;-73
2022/07/27 13:08:16;;;;;;;5.65;3.85;;;;;;;;;;5095722;28;20024;-72
2022/07/27 13:10:43;;;;;;;6.38;3.55;;;;;;;;;;5096079;28;20472;-73
2022/07/27 13:13:09;;;;;;;5.35;3.83;;;;;;;;;;5096138;28;20384;-74
2022/07/27 13:15:35;;;;;;;5.00;3.28;;;;;;;;;;5095642;28;20016;-74
2022/07/27 13:18:01;;;;;;;6.43;4.35;;;;;;;;;;5096025;28;20028;-72
2022/07/27 13:20:28;;;;;;;7.47;4.15;;;;;;;;;;5095938;28;20028;-71
2022/07/27 13:22:54;;;;;;;5.75;3.95;;;;;;;;;;5094282;28;20066;-73
2022/07/27 13:25:20;;;;;;;5.35;3.72;;;;;;;;;;5094571;28;20024;-74
2022/07/27 13:27:47;;;;;;;6.13;3.70;;;;;;;;;;5095883;28;20020;-74
2022/07/27 13:30:14;;;;;;;4.95;2.97;;;;;;;;;;5095460;28;20016;-75
2022/07/27 13:32:41;;;;;;;6.03;3.60;;;;;;;;;;5095814;28;20091;-74
2022/07/27 13:35:08;;;;;;;5.70;3.83;;;;;;;;;;5095330;28;20032;-74
2022/07/27 13:37:34;;;;;;;5.70;3.58;;;;;;;;;;5094406;28;20020;-74
2022/07/27 13:40:00;;;;;;;7.38;3.75;;;;;;;;;;5095522;28;20066;-73
2022/07/27 13:42:26;;;;;;;4.85;3.58;;;;;;;;;;5094854;28;20598;-74
2022/07/27 13:44:59;;;;;;;5.28;3.33;;;;;;;;;;5094120;28;20490;-73
2022/07/27 13:47:25;;;;;;;6.30;3.60;;;;;;;;;;5095406;28;20031;-74
2022/07/27 13:49:51;;;;;;;4.90;3.90;;;;;;;;;;5093836;28;20024;-73
2022/07/27 13:52:17;;;;;;;5.53;3.50;;;;;;;;;;5095292;28;20020;-74
2022/07/27 13:54:43;;;;;;;4.75;3.28;;;;;;;;;;5094045;28;20035;-74
2022/07/27 13:57:10;;;;;;;5.05;3.53;;;;;;;;;;5094872;28;20035;-74
2022/07/27 13:59:36;;;;;;;6.25;3.58;;;;;;;;;;5095165;28;20020;-75
2022/07/27 14:02:02;;;;;;;4.53;3.30;;;;;;;;;;5093809;28;20062;-75
2022/07/27 14:04:28;;;;;;;4.70;3.42;;;;;;;;;;5094520;28;20103;-74
2022/07/27 14:06:54;;;;;;;6.20;3.67;;;;;;;;;;5094996;28;20020;-73
2022/07/27 14:10:30;;;;;;;4.80;3.17;;;;;;;;;;5095090;28;20457;-73
2022/07/27 14:12:07;;;;;;;6.78;3.45;;;;;;;;;;5094476;28;20032;-74
2022/07/27 14:14:33;;;;;;;5.38;3.60;;;;;;;;;;5094843;28;20049;-74
2022/07/27 14:16:59;;;;;;;4.93;3.75;;;;;;;;;;5093509;28;20023;-74
2022/07/27 14:19:26;;;;;;;4.63;3.28;;;;;;;;;;5093067;28;20053;-74
2022/07/27 14:21:53;;;;;;;6.05;3.60;;;;;;;;;;5094632;28;20020;-73
2022/07/27 14:24:19;;;;;;;9.30;3.83;;;;;;;;;;5092889;28;20028;-73
2022/07/27 14:26:46;;;;;;;5.30;3.58;;;;;;;;;;5094641;28;20492;-75
2022/07/27 14:29:12;;;;;;;5.22;3.78;;;;;;;;;;5094623;28;20365;-73
2022/07/27 14:31:38;;;;;;;5.30;3.63;;;;;;;;;;5094215;28;20087;-74
2022/07/27 14:34:04;;;;;;;6.10;3.45;;;;;;;;;;5093173;28;20047;-74
2022/07/27 14:36:30;;;;;;;5.93;3.42;;;;;;;;;;5094509;28;20052;-75
2022/07/27 14:38:56;;;;;;;4.40;3.42;;;;;;;;;;5094144;28;20479;-74
2022/07/27 14:41:23;;;;;;;3.78;2.88;;;;;;;;;;5093110;28;20063;-74
2022/07/27 14:43:49;;;;;;;4.72;3.30;;;;;;;;;;5094004;28;20044;-75
2022/07/27 14:46:15;;;;;;;4.32;3.10;;;;;;;;;;5092549;28;20376;-74
2022/07/27 14:48:41;;;;;;;4.38;3.20;;;;;;;;;;5092846;28;20386;-75
2022/07/27 14:51:07;;;;;;;4.05;3.10;;;;;;;;;;5093879;28;20028;-74
2022/07/27 14:53:33;;;;;;;4.75;3.22;;;;;;;;;;5093541;28;20099;-74
2022/07/27 14:55:59;;;;;;;4.70;3.25;;;;;;;;;;5094155;28;20057;-73
2022/07/27 14:58:26;;;;;;;4.68;3.50;;;;;;;;;;5092780;28;20016;-74
2022/07/27 15:00:53;;;;;;;5.18;3.40;;;;;;;;;;5093636;28;20020;-73
2022/07/27 15:03:20;;;;;;;4.65;3.20;;;;;;;;;;5093889;28;20396;-75
2022/07/27 15:05:46;;;;;;;5.50;3.05;;;;;;;;;;5093965;28;20145;-74
2022/07/27 15:08:12;;;;;;;4.95;3.50;;;;;;;;;;5093574;28;20028;-75
2022/07/27 15:10:38;;;;;;;5.30;3.60;;;;;;;;;;5092556;28;20024;-75
2022/07/27 15:13:05;;;;;;;4.55;3.58;;;;;;;;;;5093931;28;20028;-74
2022/07/27 15:15:31;;;;;;;5.40;3.40;;;;;;;;;;5093567;28;20020;-75
2022/07/27 15:17:57;;;;;;;5.05;3.45;;;;;;;;;;5093838;28;20023;-75
2022/07/27 15:20:24;;;;;;;5.03;3.38;;;;;;;;;;5093420;28;20020;-74
2022/07/27 15:22:50;;;;;;;6.57;3.50;;;;;;;;;;5092291;28;20074;-74
2022/07/27 15:25:17;;;;;;;5.03;3.33;;;;;;;;;;5092386;28;20118;-75
2022/07/27 15:27:44;;;;;;;4.82;3.17;;;;;;;;;;5093455;28;20024;-75
2022/07/27 15:30:10;;;;;;;4.15;3.38;;;;;;;;;;5093514;28;20020;-74
2022/07/27 15:32:36;;;;;;;4.70;3.33;;;;;;;;;;5093600;28;20024;-75
2022/07/27 15:35:03;;;;;;;6.18;3.38;;;;;;;;;;5093131;28;20024;-75
2022/07/27 15:37:29;;;;;;;4.03;2.85;;;;;;;;;;5093487;28;20017;-75
2022/07/27 15:39:55;;;;;;;5.70;3.50;;;;;;;;;;5092414;28;20391;-76
2022/07/27 15:42:21;;;;;;;6.28;3.67;;;;;;;;;;5092921;28;20040;-75
2022/07/27 15:44:47;;;;;;;5.93;3.72;;;;;;;;;;5093464;28;20556;-75
2022/07/27 15:47:13;;;;;;;7.63;4.07;;;;;;;;;;5093580;28;20146;-75